LEGTLEBZ

Guest
Details From LEGT - Getafe
To LEBZ - Talavera La Real
Flight Number -
Tags decoded
Created
Modified
Stats Distance 174 nm / 323 km
Max Altitude 0 ft / 0 m
Waypoints 3
Social Downloads 1
Likes 0
Share VATSIM

Download

Looking for another format? Having issues loading an existing format? Contact us
Advertisement - Login to hide

Notes

Requested: LEGT KASTA LEBZ

Route

LEGT KASTA LEBZ

ID Type Via Altitude Latitude Longitude Leg Dist Tot Dist Heading (true) Name
O LEGT APT - 0 ft / 0 m 40.29315˚ -3.72248˚ - 0 nm - Getafe
KASTA FIX - 0 ft / 0 m 40.19233˚ -5.03436˚ 60 nm 60 nm 265° / 264° -
O LEBZ APT - 0 ft / 0 m 38.89127˚ -6.82126˚ 113 nm 174 nm 227° / 226° Talavera La Real

Altitude Profile

Advertisement - Login to hide

Weather


0- 5 10 15 20 25 30 35+ Temperature / ° C

Clouds and Precipitation
Forecast for 2018-05-27 12:00 UTC. Updated an hour ago

Ground ~20,000 ft ~40,000 ft Winds

LEGT

Details ICAO LEGT
Name Getafe
Region Spain
Timezone Europe/Madrid (UTC+2.0)
Stats Elevation 2,029 ft / 618 m (AMSL)
Location 40.293152° -3.722481°
Runways 2
Magnetic Variation 0.673° W

METAR

LEGT 271000Z VRB01KT 9999 FEW045 21/13 Q1015

Decode

TAF

Not found

Departure Runways

ID Width Length Bearing (true) Bearing (mag) Surface Threshold Offset Overrun Length
05 197 ft / 60 m 8,130 ft / 2,478 m 45.08° 45.75° Asphalt 0 ft / 0 m 410 ft / 125 m
05R 98 ft / 30 m 3,093 ft / 943 m 44.78° 45.45° Dirt 0 ft / 0 m 0 ft / 0 m
23 197 ft / 60 m 8,130 ft / 2,478 m 225.10° 225.77° Asphalt 0 ft / 0 m 492 ft / 150 m
23L 98 ft / 30 m 3,093 ft / 943 m 224.79° 225.46° Dirt 0 ft / 0 m 0 ft / 0 m

LEBZ

Details ICAO LEBZ (BJZ)
Name Talavera La Real
Region Spain
Timezone Europe/Madrid (UTC+2.0)
Stats Elevation 609 ft / 186 m (AMSL)
Location 38.891271° -6.821256°
Runways 1
Magnetic Variation 1.565° W

METAR

LEBZ 271000Z 27006KT 230V320 9999 FEW040TCU 22/14 Q1015

Decode

TAF

TAF AMD LEBZ 271004Z 2710/2806 24006KT 9999 SCT030 TX25/2715Z TN13/2805Z PROB40 TEMPO 2710/2719 4000 SHRA SCT025CB

Decode

Destination Runways

ID Width Length Bearing (true) Bearing (mag) Surface Threshold Offset Overrun Length
13 197 ft / 60 m 9,350 ft / 2,850 m 125.72° 127.28° Asphalt 0 ft / 0 m 980 ft / 299 m
31 197 ft / 60 m 9,350 ft / 2,850 m 305.74° 307.30° Asphalt 0 ft / 0 m 980 ft / 299 m

Approach Navaids

Runway Type Ident Frequency Range Bearing (true) Bearing (mag) Slope Elevation
31 Localiser ITL 110.50 MHz 18 nm / 33 km 305.70° 307.27° - 609 ft / 186 m (AMSL)
31 Glidescope ITL 110.50 MHz 10 nm / 19 km 305.73° 307.30° 3.00° 609 ft / 186 m (AMSL)
31 DME ITL 110.50 MHz 18 nm / 33 km - - - 639 ft / 195 m (AMSL)

Popular Alternatives